createdAt,value
2018-07-22T00:00:33.900Z,0.00
2018-07-22T00:01:33.827Z,0.00
2018-07-22T00:02:33.781Z,0.00
2018-07-22T00:03:33.734Z,0.00
2018-07-22T00:04:33.688Z,0.00
2018-07-22T00:05:33.678Z,0.00
2018-07-22T00:06:33.600Z,0.00
2018-07-22T00:07:33.594Z,0.00
2018-07-22T00:08:33.512Z,0.00
2018-07-22T00:09:33.466Z,0.00
2018-07-22T00:10:33.421Z,0.00
2018-07-22T00:11:33.380Z,0.00
2018-07-22T00:12:33.366Z,0.00
2018-07-22T00:13:33.321Z,0.00
2018-07-22T00:14:33.247Z,0.00
2018-07-22T00:15:33.205Z,0.00
2018-07-22T00:16:33.156Z,0.00
2018-07-22T00:17:33.107Z,0.00
2018-07-22T00:18:33.099Z,0.00
2018-07-22T00:19:33.020Z,0.00
2018-07-22T00:20:32.974Z,0.00
2018-07-22T00:21:32.932Z,0.00
2018-07-22T00:22:32.888Z,0.00
2018-07-22T00:23:32.878Z,0.00
2018-07-22T00:24:32.798Z,0.00
2018-07-22T00:25:32.784Z,0.00
2018-07-22T00:26:32.709Z,0.00
2018-07-22T00:27:32.665Z,0.00
2018-07-22T00:28:32.616Z,0.00
2018-07-22T00:29:32.570Z,0.00
2018-07-22T00:30:32.576Z,0.00
2018-07-22T00:31:32.483Z,0.00
2018-07-22T00:32:32.439Z,0.00
2018-07-22T00:33:32.393Z,0.00
2018-07-22T00:34:32.347Z,0.00
2018-07-22T00:35:32.336Z,0.00
2018-07-22T00:36:32.262Z,0.00
2018-07-22T00:37:32.211Z,0.00
2018-07-22T00:38:32.198Z,0.00
2018-07-22T00:39:32.127Z,0.00
2018-07-22T00:40:32.075Z,0.00
2018-07-22T00:41:32.035Z,0.00
2018-07-22T00:42:31.991Z,0.00
2018-07-22T00:43:31.982Z,0.00
2018-07-22T00:44:31.900Z,0.00
2018-07-22T00:45:31.851Z,0.00
2018-07-22T00:46:31.808Z,0.00
2018-07-22T00:47:31.765Z,0.00
2018-07-22T00:48:31.749Z,0.00
2018-07-22T00:49:31.673Z,0.00
2018-07-22T00:50:31.628Z,0.00
2018-07-22T00:51:31.586Z,0.00
2018-07-22T00:52:31.589Z,0.00
2018-07-22T00:53:31.491Z,0.00
2018-07-22T00:54:31.447Z,0.00
2018-07-22T00:55:31.400Z,0.00
2018-07-22T00:56:31.357Z,0.00
2018-07-22T00:57:31.345Z,0.00
2018-07-22T00:58:31.266Z,0.00
2018-07-22T00:59:31.224Z,0.00
2018-07-22T01:00:31.172Z,0.00
2018-07-22T01:01:31.133Z,0.00
2018-07-22T01:02:31.130Z,0.00
2018-07-22T01:03:31.045Z,0.00
2018-07-22T01:04:30.992Z,0.00
2018-07-22T01:05:30.949Z,0.00
2018-07-22T01:06:30.931Z,0.00
2018-07-22T01:07:30.895Z,0.00
2018-07-22T01:08:30.847Z,0.00
2018-07-22T01:09:30.774Z,0.00
2018-07-22T01:10:30.765Z,0.00
2018-07-22T01:11:30.677Z,0.00
2018-07-22T01:12:30.634Z,0.00
2018-07-22T01:13:30.591Z,0.00
2018-07-22T01:14:30.546Z,0.00
2018-07-22T01:15:30.531Z,0.00
2018-07-22T01:16:30.456Z,0.00
2018-07-22T01:17:30.411Z,0.00
2018-07-22T01:18:30.366Z,0.00
2018-07-22T01:19:30.321Z,0.00
2018-07-22T01:20:30.305Z,0.00
2018-07-22T01:21:30.228Z,0.00
2018-07-22T01:22:30.182Z,0.00
2018-07-22T01:23:30.141Z,0.00
2018-07-22T01:24:30.097Z,0.00
2018-07-22T01:25:30.082Z,0.00
2018-07-22T01:26:30.012Z,0.00
2018-07-22T01:27:29.960Z,0.00
2018-07-22T01:28:29.956Z,0.00
2018-07-22T01:29:29.869Z,0.00
2018-07-22T01:30:29.822Z,0.00
2018-07-22T01:31:29.779Z,0.00
2018-07-22T01:32:29.733Z,0.00
2018-07-22T01:33:29.720Z,0.00
2018-07-22T01:34:29.644Z,0.00
2018-07-22T01:35:29.599Z,0.00
2018-07-22T01:36:29.552Z,0.00
2018-07-22T01:37:29.545Z,0.00
2018-07-22T01:38:29.463Z,0.00
2018-07-22T01:39:29.420Z,0.00
2018-07-22T01:40:29.374Z,0.00
2018-07-22T01:41:29.361Z,0.00
2018-07-22T01:42:29.284Z,0.00
2018-07-22T01:43:29.242Z,0.00
2018-07-22T01:44:29.191Z,0.00
2018-07-22T01:45:29.150Z,0.00
2018-07-22T01:46:29.144Z,0.00
2018-07-22T01:47:29.056Z,0.00
2018-07-22T01:48:29.012Z,0.00
2018-07-22T01:49:28.967Z,0.00
2018-07-22T01:50:28.925Z,0.00
2018-07-22T01:51:28.906Z,0.00
2018-07-22T01:52:28.833Z,0.00
2018-07-22T01:53:28.788Z,0.00
2018-07-22T01:54:28.748Z,0.00
2018-07-22T01:55:28.732Z,0.00
2018-07-22T01:56:28.649Z,0.00
2018-07-22T01:57:28.609Z,0.00
2018-07-22T01:58:28.563Z,0.00
2018-07-22T01:59:28.650Z,0.00
2018-07-22T02:00:28.473Z,0.00
2018-07-22T02:01:28.468Z,0.00
2018-07-22T02:02:28.379Z,0.00
2018-07-22T02:03:28.337Z,0.00
2018-07-22T02:04:28.327Z,0.00
2018-07-22T02:05:28.245Z,0.00
2018-07-22T02:06:28.208Z,0.00
2018-07-22T02:07:28.152Z,0.00
2018-07-22T02:08:28.112Z,0.00
2018-07-22T02:09:28.097Z,0.00
2018-07-22T02:10:28.020Z,0.00
2018-07-22T02:11:27.976Z,0.00
2018-07-22T02:12:27.930Z,0.00
2018-07-22T02:13:27.926Z,0.00
2018-07-22T02:14:27.838Z,0.00
2018-07-22T02:15:27.796Z,0.00
2018-07-22T02:16:27.751Z,0.00
2018-07-22T02:17:27.703Z,0.00
2018-07-22T02:18:27.690Z,0.00
2018-07-22T02:19:27.647Z,0.00
2018-07-22T02:20:27.568Z,0.00
2018-07-22T02:21:27.521Z,0.00
2018-07-22T02:22:27.511Z,0.00
2018-07-22T02:23:27.432Z,0.00
2018-07-22T02:24:27.387Z,0.00
2018-07-22T02:25:27.339Z,0.00
2018-07-22T02:26:27.295Z,0.00
2018-07-22T02:27:27.286Z,0.00
2018-07-22T02:28:27.207Z,0.00
2018-07-22T02:29:27.160Z,0.00
2018-07-22T02:30:27.115Z,0.00
2018-07-22T02:31:27.122Z,0.00
2018-07-22T02:32:27.025Z,0.00
2018-07-22T02:33:26.982Z,0.00
2018-07-22T02:34:26.933Z,0.00
2018-07-22T02:35:26.892Z,0.00
2018-07-22T02:36:26.880Z,0.00
2018-07-22T02:37:26.802Z,0.00
2018-07-22T02:38:26.752Z,0.00
2018-07-22T02:39:26.708Z,0.00
2018-07-22T02:40:26.666Z,0.00
2018-07-22T02:41:26.649Z,0.00
2018-07-22T02:42:26.610Z,0.00
2018-07-22T02:43:26.529Z,0.00
2018-07-22T02:44:26.482Z,0.00
2018-07-22T02:45:26.436Z,0.00
2018-07-22T02:46:26.398Z,0.00
2018-07-22T02:47:26.377Z,0.00
2018-07-22T02:48:26.300Z,0.00
2018-07-22T02:49:26.255Z,0.00
2018-07-22T02:50:26.211Z,0.00
2018-07-22T02:51:26.215Z,0.00
2018-07-22T02:52:26.154Z,0.00
2018-07-22T02:53:26.078Z,0.00
2018-07-22T02:54:26.035Z,0.00
2018-07-22T02:55:25.982Z,0.00
2018-07-22T02:56:25.972Z,0.00
2018-07-22T02:57:25.897Z,0.00
2018-07-22T02:58:25.876Z,0.00
2018-07-22T02:59:25.805Z,0.00
2018-07-22T03:00:25.755Z,0.00
2018-07-22T03:01:25.714Z,0.00
2018-07-22T03:02:25.668Z,0.00
2018-07-22T03:03:25.678Z,0.00
2018-07-22T03:04:25.576Z,0.00
2018-07-22T03:05:25.532Z,0.00
2018-07-22T03:06:25.485Z,0.00
2018-07-22T03:07:25.442Z,0.00
2018-07-22T03:08:25.445Z,0.00
2018-07-22T03:09:25.353Z,0.00
2018-07-22T03:10:25.305Z,0.00
2018-07-22T03:11:25.257Z,0.00
2018-07-22T03:12:25.211Z,0.00
2018-07-22T03:13:25.208Z,0.00
2018-07-22T03:14:25.127Z,0.00
2018-07-22T03:15:25.078Z,0.00
2018-07-22T03:16:25.035Z,0.00
2018-07-22T03:17:24.990Z,0.00
2018-07-22T03:18:24.982Z,0.00
2018-07-22T03:19:24.897Z,0.00
2018-07-22T03:20:24.849Z,0.00
2018-07-22T03:21:24.806Z,4.00
2018-07-22T03:22:24.759Z,4.00
2018-07-22T03:23:24.747Z,4.00
2018-07-22T03:24:24.669Z,0.00
2018-07-22T03:25:24.622Z,0.00
2018-07-22T03:26:24.580Z,4.00
2018-07-22T03:27:24.535Z,4.00
2018-07-22T03:28:24.520Z,4.00
2018-07-22T03:29:24.440Z,4.00
2018-07-22T03:30:24.400Z,8.00
2018-07-22T03:31:24.353Z,4.00
2018-07-22T03:32:24.305Z,4.00
2018-07-22T03:33:24.291Z,4.00
2018-07-22T03:34:24.216Z,8.00
2018-07-22T03:35:24.205Z,8.00
2018-07-22T03:36:24.131Z,8.00
2018-07-22T03:37:24.080Z,4.00
2018-07-22T03:38:24.037Z,8.00
2018-07-22T03:39:23.989Z,8.00
2018-07-22T03:40:23.976Z,8.00
2018-07-22T03:41:23.896Z,8.00
2018-07-22T03:42:23.885Z,8.00
2018-07-22T03:43:23.810Z,8.00
2018-07-22T03:44:23.763Z,12.00
2018-07-22T03:45:23.717Z,12.00
2018-07-22T03:46:23.707Z,8.00
2018-07-22T03:47:23.665Z,12.00
2018-07-22T03:48:23.579Z,12.00
2018-07-22T03:49:23.535Z,12.00
2018-07-22T03:50:23.491Z,12.00
2018-07-22T03:51:23.480Z,16.00
2018-07-22T03:52:23.398Z,12.00
2018-07-22T03:53:23.354Z,16.00
2018-07-22T03:54:23.309Z,16.00
2018-07-22T03:55:23.263Z,20.00
2018-07-22T03:56:23.249Z,20.00
2018-07-22T03:57:23.173Z,20.00
2018-07-22T03:58:23.126Z,20.00
2018-07-22T03:59:23.082Z,20.00
2018-07-22T04:00:23.068Z,24.00
2018-07-22T04:01:22.992Z,20.00
2018-07-22T04:02:22.944Z,24.00
2018-07-22T04:03:22.900Z,24.00
2018-07-22T04:04:22.857Z,24.00
2018-07-22T04:05:22.853Z,28.00
2018-07-22T04:06:22.764Z,24.00
2018-07-22T04:07:22.747Z,28.00
2018-07-22T04:08:22.673Z,28.00
2018-07-22T04:09:22.626Z,28.00
2018-07-22T04:10:22.612Z,28.00
2018-07-22T04:11:22.538Z,28.00
2018-07-22T04:12:22.491Z,28.00
2018-07-22T04:13:22.451Z,28.00
2018-07-22T04:14:22.402Z,28.00
2018-07-22T04:15:22.386Z,32.00
2018-07-22T04:16:22.311Z,32.00
2018-07-22T04:17:22.265Z,32.00
2018-07-22T04:18:22.220Z,32.00
2018-07-22T04:19:22.172Z,32.00
2018-07-22T04:20:22.159Z,36.00
2018-07-22T04:21:22.093Z,36.00
2018-07-22T04:22:22.037Z,36.00
2018-07-22T04:23:21.992Z,36.00
2018-07-22T04:24:21.949Z,40.00
2018-07-22T04:25:21.933Z,40.00
2018-07-22T04:26:21.856Z,40.00
2018-07-22T04:27:21.811Z,40.00
2018-07-22T04:28:21.764Z,40.00
2018-07-22T04:29:21.717Z,44.00
2018-07-22T04:30:21.710Z,44.00
2018-07-22T04:31:21.668Z,40.00
2018-07-22T04:32:21.582Z,40.00
2018-07-22T04:33:21.536Z,40.00
2018-07-22T04:34:21.522Z,40.00
2018-07-22T04:35:21.446Z,44.00
2018-07-22T04:36:21.401Z,40.00
2018-07-22T04:37:21.385Z,44.00
2018-07-22T04:38:21.307Z,44.00
2018-07-22T04:39:21.267Z,44.00
2018-07-22T04:40:21.220Z,48.00
2018-07-22T04:41:21.175Z,48.00
2018-07-22T04:42:21.158Z,48.00
2018-07-22T04:43:21.083Z,52.00
2018-07-22T04:44:21.069Z,52.00
2018-07-22T04:45:20.989Z,52.00
2018-07-22T04:46:20.956Z,52.00
2018-07-22T04:47:20.933Z,56.00
2018-07-22T04:48:20.854Z,56.00
2018-07-22T04:49:20.840Z,60.00
2018-07-22T04:50:20.760Z,60.00
2018-07-22T04:51:20.750Z,64.00
2018-07-22T04:52:20.672Z,68.00
2018-07-22T04:53:20.627Z,68.00
2018-07-22T04:54:20.611Z,72.00
2018-07-22T04:55:20.536Z,76.00
2018-07-22T04:56:20.486Z,76.00
2018-07-22T04:57:20.442Z,80.00
2018-07-22T04:58:20.403Z,84.00
2018-07-22T04:59:20.386Z,88.00
2018-07-22T05:00:20.304Z,92.00
2018-07-22T05:01:20.266Z,96.00
2018-07-22T05:02:20.215Z,96.00
2018-07-22T05:03:20.220Z,100.00
2018-07-22T05:04:20.121Z,100.00
2018-07-22T05:05:20.080Z,100.00
2018-07-22T05:06:20.034Z,104.00
2018-07-22T05:07:19.992Z,108.00
2018-07-22T05:08:19.973Z,108.00
2018-07-22T05:09:19.897Z,112.00
2018-07-22T05:10:19.853Z,112.00
2018-07-22T05:11:19.803Z,120.00
2018-07-22T05:12:19.793Z,120.00
2018-07-22T05:13:19.713Z,124.00
2018-07-22T05:14:19.669Z,128.00
2018-07-22T05:15:19.621Z,136.00
2018-07-22T05:16:19.580Z,136.00
2018-07-22T05:17:19.567Z,140.00
2018-07-22T05:18:19.482Z,148.00
2018-07-22T05:19:19.476Z,152.00
2018-07-22T05:20:19.394Z,152.00
2018-07-22T05:21:19.350Z,156.00
2018-07-22T05:22:19.307Z,160.00
2018-07-22T05:23:19.256Z,168.00
2018-07-22T05:24:19.241Z,168.00
2018-07-22T05:25:19.166Z,172.00
2018-07-22T05:26:19.118Z,176.00
2018-07-22T05:27:19.070Z,180.00
2018-07-22T05:28:19.104Z,184.00
2018-07-22T05:29:19.013Z,184.00
2018-07-22T05:30:18.933Z,184.00
2018-07-22T05:31:18.922Z,188.00
2018-07-22T05:32:18.844Z,192.00
2018-07-22T05:33:18.798Z,196.00
2018-07-22T05:34:18.750Z,196.00
2018-07-22T05:35:18.709Z,196.00
2018-07-22T05:36:18.693Z,196.00
2018-07-22T05:37:18.613Z,200.00
2018-07-22T05:38:18.568Z,196.00
2018-07-22T05:39:18.527Z,192.00
2018-07-22T05:40:18.509Z,192.00
2018-07-22T05:41:18.429Z,192.00
2018-07-22T05:42:18.384Z,192.00
2018-07-22T05:43:18.370Z,192.00
2018-07-22T05:44:18.295Z,188.00
2018-07-22T05:45:18.248Z,188.00
2018-07-22T05:46:18.242Z,188.00
2018-07-22T05:47:18.158Z,188.00
2018-07-22T05:48:18.110Z,184.00
2018-07-22T05:49:18.063Z,188.00
2018-07-22T05:50:18.022Z,184.00
2018-07-22T05:51:18.014Z,184.00
2018-07-22T05:52:17.928Z,184.00
2018-07-22T05:53:17.885Z,184.00
2018-07-22T05:54:17.837Z,184.00
2018-07-22T05:55:17.800Z,184.00
2018-07-22T05:56:17.780Z,184.00
2018-07-22T05:57:17.740Z,188.00
2018-07-22T05:58:17.653Z,192.00
2018-07-22T05:59:17.612Z,196.00
2018-07-22T06:00:17.560Z,200.00
2018-07-22T06:01:17.518Z,204.00
2018-07-22T06:02:17.506Z,212.00
2018-07-22T06:03:17.439Z,220.00
2018-07-22T06:04:17.383Z,232.00
2018-07-22T06:05:17.368Z,244.00
2018-07-22T06:06:17.294Z,252.00
2018-07-22T06:07:17.243Z,268.00
2018-07-22T06:08:17.196Z,284.00
2018-07-22T06:09:17.157Z,296.00
2018-07-22T06:10:17.155Z,312.00
2018-07-22T06:11:17.065Z,324.00
2018-07-22T06:12:17.018Z,340.00
2018-07-22T06:13:16.973Z,356.00
2018-07-22T06:14:16.927Z,372.00
2018-07-22T06:15:16.934Z,388.00
2018-07-22T06:16:16.837Z,408.00
2018-07-22T06:17:16.794Z,428.00
2018-07-22T06:18:16.750Z,444.00
2018-07-22T06:19:16.701Z,464.00
2018-07-22T06:20:16.687Z,480.00
2018-07-22T06:21:16.610Z,488.00
2018-07-22T06:22:16.565Z,500.00
2018-07-22T06:23:16.611Z,512.00
2018-07-22T06:24:16.473Z,524.00
2018-07-22T06:25:16.468Z,532.00
2018-07-22T06:26:16.386Z,540.00
2018-07-22T06:27:16.959Z,552.00
2018-07-22T06:28:16.290Z,552.00
2018-07-22T06:29:16.284Z,560.00
2018-07-22T06:30:16.236Z,560.00
2018-07-22T06:31:16.155Z,556.00
2018-07-22T06:32:16.117Z,556.00
2018-07-22T06:33:16.082Z,552.00
2018-07-22T06:34:16.024Z,556.00
2018-07-22T06:35:16.117Z,564.00
2018-07-22T06:36:15.931Z,576.00
2018-07-22T06:37:15.885Z,592.00
2018-07-22T06:38:15.838Z,612.00
2018-07-22T06:39:15.801Z,628.00
2018-07-22T06:40:15.797Z,644.00
2018-07-22T06:41:15.785Z,656.00
2018-07-22T06:42:15.660Z,680.00
2018-07-22T06:43:15.615Z,704.00
2018-07-22T06:44:15.570Z,732.00
2018-07-22T06:45:15.555Z,760.00
2018-07-22T06:46:15.506Z,780.00
2018-07-22T06:47:15.435Z,804.00
2018-07-22T06:48:15.391Z,820.00
2018-07-22T06:49:15.345Z,832.00
2018-07-22T06:50:15.338Z,840.00
2018-07-22T06:51:15.257Z,840.00
2018-07-22T06:52:15.211Z,836.00
2018-07-22T06:53:15.160Z,840.00
2018-07-22T06:54:15.146Z,844.00
2018-07-22T06:55:15.109Z,848.00
2018-07-22T06:56:15.033Z,860.00
2018-07-22T06:57:15.019Z,876.00
2018-07-22T06:58:14.943Z,896.00
2018-07-22T06:59:14.898Z,916.00
2018-07-22T07:00:14.883Z,936.00
2018-07-22T07:01:14.801Z,956.00
2018-07-22T07:02:14.759Z,980.00
2018-07-22T07:03:14.716Z,1000.00
2018-07-22T07:04:14.666Z,1016.00
2018-07-22T07:05:14.696Z,1036.00
2018-07-22T07:06:14.580Z,1044.00
2018-07-22T07:07:14.534Z,1048.00
2018-07-22T07:08:14.524Z,1048.00
2018-07-22T07:09:14.446Z,1048.00
2018-07-22T07:10:14.400Z,1044.00
2018-07-22T07:11:14.356Z,1040.00
2018-07-22T07:12:14.348Z,1036.00
2018-07-22T07:13:14.272Z,1032.00
2018-07-22T07:14:14.221Z,1036.00
2018-07-22T07:15:14.207Z,1040.00
2018-07-22T07:16:14.130Z,1052.00
2018-07-22T07:17:14.123Z,1060.00
2018-07-22T07:18:14.074Z,1068.00
2018-07-22T07:19:13.997Z,1076.00
2018-07-22T07:20:13.953Z,1080.00
2018-07-22T07:21:13.911Z,1084.00
2018-07-22T07:22:13.955Z,1088.00
2018-07-22T07:23:13.817Z,1092.00
2018-07-22T07:24:13.776Z,1096.00
2018-07-22T07:25:13.732Z,1104.00
2018-07-22T07:26:13.684Z,1120.00
2018-07-22T07:27:13.673Z,1136.00
2018-07-22T07:28:13.604Z,1148.00
2018-07-22T07:29:13.552Z,1168.00
2018-07-22T07:30:13.504Z,1192.00
2018-07-22T07:31:13.462Z,1212.00
2018-07-22T07:32:13.454Z,1244.00
2018-07-22T07:33:13.419Z,1276.00
2018-07-22T07:34:13.378Z,1304.00
2018-07-22T07:35:13.286Z,1340.00
2018-07-22T07:36:13.242Z,1364.00
2018-07-22T07:37:13.195Z,1388.00
2018-07-22T07:38:13.193Z,1404.00
2018-07-22T07:39:13.149Z,1412.00
2018-07-22T07:40:13.070Z,1416.00
2018-07-22T07:41:13.018Z,1412.00
2018-07-22T07:42:13.000Z,1404.00
2018-07-22T07:43:12.933Z,1396.00
2018-07-22T07:44:12.917Z,1388.00
2018-07-22T07:45:12.841Z,1388.00
2018-07-22T07:46:12.838Z,1392.00
2018-07-22T07:47:12.759Z,1404.00
2018-07-22T07:48:12.708Z,1428.00
2018-07-22T07:49:12.694Z,1452.00
2018-07-22T07:50:12.623Z,1496.00
2018-07-22T07:51:12.576Z,1544.00
2018-07-22T07:52:12.529Z,1592.00
2018-07-22T07:53:12.487Z,1640.00
2018-07-22T07:54:12.478Z,1684.00
2018-07-22T07:55:12.402Z,1704.00
2018-07-22T07:56:12.357Z,1700.00
2018-07-22T07:57:12.316Z,1660.00
2018-07-22T07:58:12.301Z,1596.00
2018-07-22T07:59:12.257Z,1536.00
2018-07-22T08:00:12.182Z,1480.00
2018-07-22T08:01:12.132Z,1440.00
2018-07-22T08:02:12.091Z,1408.00
2018-07-22T08:03:12.047Z,1376.00
2018-07-22T08:04:12.038Z,1344.00
2018-07-22T08:05:11.956Z,1316.00
2018-07-22T08:06:11.913Z,1288.00
2018-07-22T08:07:11.869Z,1268.00
2018-07-22T08:08:11.829Z,1256.00
2018-07-22T08:09:11.819Z,1260.00
2018-07-22T08:10:11.737Z,1272.00
2018-07-22T08:11:11.727Z,1292.00
2018-07-22T08:12:11.652Z,1308.00
2018-07-22T08:13:11.607Z,1332.00
2018-07-22T08:14:11.564Z,1344.00
2018-07-22T08:15:11.519Z,1360.00
2018-07-22T08:16:11.506Z,1380.00
2018-07-22T08:17:11.433Z,1400.00
2018-07-22T08:18:11.427Z,1440.00
2018-07-22T08:19:11.378Z,1476.00
2018-07-22T08:20:11.297Z,1512.00
2018-07-22T08:21:11.255Z,1544.00
2018-07-22T08:22:11.273Z,1568.00
2018-07-22T08:23:11.199Z,1620.00
2018-07-22T08:24:11.123Z,1716.00
2018-07-22T08:25:11.082Z,1832.00
2018-07-22T08:26:11.081Z,1956.00
2018-07-22T08:27:11.014Z,2128.00
2018-07-22T08:28:10.946Z,2328.00
2018-07-22T08:29:10.940Z,2580.00
2018-07-22T08:30:10.892Z,2860.00
2018-07-22T08:31:10.817Z,3036.00
2018-07-22T08:32:10.773Z,3180.00
2018-07-22T08:33:10.731Z,3208.00
2018-07-22T08:34:10.687Z,3136.00
2018-07-22T08:35:10.677Z,3016.00
2018-07-22T08:36:10.602Z,2936.00
2018-07-22T08:37:10.555Z,2900.00
2018-07-22T08:38:10.520Z,2912.00
2018-07-22T08:39:10.503Z,2960.00
2018-07-22T08:40:10.459Z,3072.00
2018-07-22T08:41:10.384Z,3252.00
2018-07-22T08:42:10.375Z,3500.00
2018-07-22T08:43:10.303Z,3268.00
2018-07-22T08:44:10.255Z,3164.00
2018-07-22T08:45:10.208Z,2972.00
2018-07-22T08:46:10.173Z,2820.00
2018-07-22T08:47:10.158Z,2704.00
2018-07-22T08:48:10.084Z,2616.00
2018-07-22T08:49:10.039Z,2556.00
2018-07-22T08:50:09.997Z,2532.00
2018-07-22T08:51:09.958Z,2512.00
2018-07-22T08:52:09.949Z,2468.00
2018-07-22T08:53:09.916Z,2424.00
2018-07-22T08:54:09.873Z,2364.00
2018-07-22T08:55:09.784Z,2296.00
2018-07-22T08:56:09.740Z,2228.00
2018-07-22T08:57:09.698Z,2180.00
2018-07-22T08:58:09.660Z,2132.00
2018-07-22T08:59:09.646Z,2080.00
2018-07-22T09:00:09.569Z,2028.00
2018-07-22T09:01:09.557Z,1988.00
2018-07-22T09:02:09.517Z,1956.00
2018-07-22T09:03:09.521Z,1940.00
2018-07-22T09:04:09.403Z,1928.00
2018-07-22T09:05:09.391Z,1924.00
2018-07-22T09:06:09.341Z,1920.00
2018-07-22T09:07:09.284Z,1908.00
2018-07-22T09:08:09.340Z,1888.00
2018-07-22T09:09:09.203Z,1872.00
2018-07-22T09:10:09.196Z,1852.00
2018-07-22T09:11:09.125Z,1836.00
2018-07-22T09:12:09.106Z,1820.00
2018-07-22T09:13:09.020Z,1808.00
2018-07-22T09:14:09.052Z,1804.00
2018-07-22T09:15:08.941Z,1792.00
2018-07-22T09:16:08.903Z,1784.00
2018-07-22T09:17:08.885Z,1772.00
2018-07-22T09:18:08.923Z,1760.00
2018-07-22T09:19:08.799Z,1752.00
2018-07-22T09:20:08.727Z,1760.00
2018-07-22T09:21:08.723Z,1772.00
2018-07-22T09:22:08.688Z,1796.00
2018-07-22T09:23:08.596Z,1804.00
2018-07-22T09:24:08.581Z,1820.00
2018-07-22T09:25:08.638Z,1828.00
2018-07-22T09:26:08.471Z,1856.00
2018-07-22T09:27:08.476Z,1896.00
2018-07-22T09:28:08.423Z,1956.00
2018-07-22T09:29:08.358Z,2016.00
2018-07-22T09:30:08.298Z,2068.00
2018-07-22T09:31:08.270Z,2108.00
2018-07-22T09:32:08.293Z,2132.00
2018-07-22T09:33:08.209Z,2164.00
2018-07-22T09:34:08.129Z,2192.00
2018-07-22T09:35:08.089Z,2220.00
2018-07-22T09:36:08.123Z,2224.00
2018-07-22T09:37:08.062Z,2228.00
2018-07-22T09:38:07.993Z,2224.00
2018-07-22T09:39:07.955Z,2212.00
2018-07-22T09:40:07.894Z,2188.00
2018-07-22T09:41:07.840Z,2160.00
2018-07-22T09:42:07.869Z,2140.00
2018-07-22T09:43:07.792Z,2128.00
2018-07-22T09:44:07.750Z,2124.00
2018-07-22T09:45:07.699Z,2116.00
2018-07-22T09:46:07.672Z,2116.00
2018-07-22T09:47:08.554Z,2108.00
2018-07-22T09:48:07.588Z,2092.00
2018-07-22T09:49:07.520Z,2076.00
2018-07-22T09:50:07.462Z,2048.00
2018-07-22T09:51:07.435Z,2016.00
2018-07-22T09:52:07.528Z,1992.00
2018-07-22T09:53:07.425Z,1968.00
2018-07-22T09:54:07.334Z,1936.00
2018-07-22T09:55:07.315Z,1904.00
2018-07-22T09:56:07.218Z,1880.00
2018-07-22T09:57:07.283Z,1852.00
2018-07-22T09:58:07.188Z,1848.00
2018-07-22T09:59:07.092Z,1860.00
2018-07-22T10:00:07.072Z,1872.00
2018-07-22T10:01:07.121Z,1884.00
2018-07-22T10:02:07.004Z,1888.00
2018-07-22T10:03:06.915Z,1880.00
2018-07-22T10:04:06.908Z,1876.00
2018-07-22T10:05:06.896Z,1872.00
2018-07-22T10:06:06.824Z,1860.00
2018-07-22T10:07:06.780Z,1840.00
2018-07-22T10:08:06.742Z,1812.00
2018-07-22T10:09:06.717Z,1776.00
2018-07-22T10:10:06.889Z,1744.00
2018-07-22T10:11:06.655Z,1712.00
2018-07-22T10:12:06.571Z,1684.00
2018-07-22T10:13:06.611Z,1668.00
2018-07-22T10:14:06.450Z,1676.00
2018-07-22T10:15:06.470Z,1696.00
2018-07-22T10:16:06.394Z,1708.00
2018-07-22T10:17:06.372Z,1720.00
2018-07-22T10:18:06.304Z,1732.00
2018-07-22T10:19:06.243Z,1748.00
2018-07-22T10:20:06.206Z,1768.00
2018-07-22T10:21:06.157Z,1796.00
2018-07-22T10:22:06.150Z,1840.00
2018-07-22T10:23:06.072Z,1884.00
2018-07-22T10:24:06.035Z,1936.00
2018-07-22T10:25:05.987Z,1984.00
2018-07-22T10:26:05.987Z,2024.00
2018-07-22T10:27:05.907Z,2064.00
2018-07-22T10:28:05.860Z,2116.00
2018-07-22T10:29:05.823Z,2164.00
2018-07-22T10:30:05.777Z,2204.00
2018-07-22T10:31:05.776Z,2212.00
2018-07-22T10:32:05.700Z,2208.00
2018-07-22T10:33:05.669Z,2208.00
2018-07-22T10:34:05.608Z,2216.00
2018-07-22T10:35:05.569Z,2224.00
2018-07-22T10:36:05.558Z,2212.00
2018-07-22T10:37:05.483Z,2176.00
2018-07-22T10:38:05.439Z,2144.00
2018-07-22T10:39:05.399Z,2116.00
2018-07-22T10:40:05.390Z,2116.00
2018-07-22T10:41:05.313Z,2120.00
2018-07-22T10:42:05.303Z,2120.00
2018-07-22T10:43:05.263Z,2112.00
2018-07-22T10:44:05.192Z,2088.00
2018-07-22T10:45:05.150Z,2036.00
2018-07-22T10:46:05.136Z,1996.00
2018-07-22T10:47:05.066Z,1968.00
2018-07-22T10:48:05.021Z,1948.00
2018-07-22T10:49:04.977Z,1920.00
2018-07-22T10:50:04.964Z,1908.00
2018-07-22T10:51:04.964Z,1916.00
2018-07-22T10:52:04.850Z,1960.00
2018-07-22T10:53:04.814Z,2020.00
2018-07-22T10:54:04.794Z,2108.00
2018-07-22T10:55:04.759Z,2204.00
2018-07-22T10:56:04.683Z,2272.00
2018-07-22T10:57:04.650Z,2316.00
2018-07-22T10:58:04.684Z,2332.00
2018-07-22T10:59:04.558Z,2368.00
2018-07-22T11:00:04.516Z,2404.00
2018-07-22T11:01:04.476Z,2420.00
2018-07-22T11:02:04.434Z,2420.00
2018-07-22T11:03:04.421Z,2420.00
2018-07-22T11:04:04.345Z,2436.00
2018-07-22T11:05:04.366Z,2456.00
2018-07-22T11:06:04.263Z,2484.00
2018-07-22T11:07:04.225Z,2520.00
2018-07-22T11:08:04.177Z,2572.00
2018-07-22T11:09:04.141Z,2640.00
2018-07-22T11:10:04.141Z,2712.00
2018-07-22T11:11:04.052Z,2776.00
2018-07-22T11:12:04.012Z,2848.00
2018-07-22T11:13:03.969Z,2908.00
2018-07-22T11:14:03.926Z,2948.00
2018-07-22T11:15:03.924Z,2972.00
2018-07-22T11:16:03.843Z,2984.00
2018-07-22T11:17:03.802Z,2988.00
2018-07-22T11:18:03.760Z,2996.00
2018-07-22T11:19:03.720Z,3012.00
2018-07-22T11:20:03.719Z,3036.00
2018-07-22T11:21:03.702Z,3056.00
2018-07-22T11:22:03.594Z,3084.00
2018-07-22T11:23:03.551Z,3100.00
2018-07-22T11:24:03.507Z,3112.00
2018-07-22T11:25:03.497Z,3136.00
2018-07-22T11:26:03.436Z,3180.00
2018-07-22T11:27:03.386Z,3208.00
2018-07-22T11:28:03.345Z,3256.00
2018-07-22T11:29:03.366Z,3328.00
2018-07-22T11:30:03.308Z,3444.00
2018-07-22T11:31:03.221Z,3556.00
2018-07-22T11:32:03.173Z,3716.00
2018-07-22T11:33:03.137Z,4000.00
2018-07-22T11:34:03.095Z,4004.00
2018-07-22T11:35:03.094Z,4240.00
2018-07-22T11:36:03.018Z,4328.00
2018-07-22T11:37:02.966Z,4412.00
2018-07-22T11:38:02.927Z,4564.00
2018-07-22T11:39:02.887Z,4664.00
2018-07-22T11:40:02.865Z,4616.00
2018-07-22T11:41:02.834Z,4720.00
2018-07-22T11:42:02.762Z,4564.00
2018-07-22T11:43:02.719Z,4472.00
2018-07-22T11:44:02.678Z,4412.00
2018-07-22T11:45:02.675Z,4332.00
2018-07-22T11:46:02.592Z,4264.00
2018-07-22T11:47:02.550Z,4248.00
2018-07-22T11:48:02.536Z,4252.00
2018-07-22T11:49:02.475Z,4344.00
2018-07-22T11:50:02.459Z,4668.00
2018-07-22T11:51:02.386Z,4828.00
2018-07-22T11:52:02.393Z,4904.00
2018-07-22T11:53:02.303Z,4612.00
2018-07-22T11:54:02.293Z,4404.00
2018-07-22T11:55:02.253Z,4380.00
2018-07-22T11:56:02.181Z,4260.00
2018-07-22T11:57:02.143Z,4240.00
2018-07-22T11:58:02.100Z,4324.00
2018-07-22T11:59:02.057Z,4384.00
2018-07-22T12:00:02.072Z,4420.00
2018-07-22T12:01:01.987Z,4436.00
2018-07-22T12:02:01.938Z,4532.00
2018-07-22T12:03:01.894Z,4592.00
2018-07-22T12:04:01.854Z,4680.00
2018-07-22T12:05:01.869Z,4672.00
2018-07-22T12:06:01.857Z,4716.00
2018-07-22T12:07:01.734Z,4852.00
2018-07-22T12:08:01.693Z,4864.00
2018-07-22T12:09:01.654Z,5124.00
2018-07-22T12:10:01.652Z,5052.00
2018-07-22T12:11:01.604Z,4836.00
2018-07-22T12:12:01.531Z,4732.00
2018-07-22T12:13:01.491Z,4648.00
2018-07-22T12:14:01.449Z,4628.00
2018-07-22T12:15:01.450Z,4588.00
2018-07-22T12:16:01.373Z,4552.00
2018-07-22T12:17:01.332Z,4512.00
2018-07-22T12:18:01.291Z,4560.00
2018-07-22T12:19:01.247Z,4692.00
2018-07-22T12:20:01.243Z,4812.00
2018-07-22T12:21:01.166Z,5208.00
2018-07-22T12:22:01.130Z,5416.00
2018-07-22T12:23:01.090Z,5440.00
2018-07-22T12:24:01.055Z,5348.00
2018-07-22T12:25:01.046Z,5060.00
2018-07-22T12:26:00.970Z,4928.00
2018-07-22T12:27:00.929Z,5252.00
2018-07-22T12:28:00.909Z,5464.00
2018-07-22T12:29:00.897Z,5868.00
2018-07-22T12:30:00.807Z,6764.00
2018-07-22T12:31:00.769Z,5068.00
2018-07-22T12:32:00.727Z,4948.00
2018-07-22T12:33:00.767Z,4888.00
2018-07-22T12:34:00.654Z,4816.00